sensor_id;sensor_type;location;lat;lon;timestamp;pressure;altitude;pressure_sealevel;temperature;humidity
49709;BME280;35601;55.902;13.606;2023-06-22T00:01:27;100883.49;;;14.42;74.85
49709;BME280;35601;55.902;13.606;2023-06-22T00:03:52;100885.06;;;14.39;75.07
49709;BME280;35601;55.902;13.606;2023-06-22T00:06:16;100889.43;;;14.36;75.13
49709;BME280;35601;55.902;13.606;2023-06-22T00:08:43;100894.01;;;14.57;75.14
49709;BME280;35601;55.902;13.606;2023-06-22T00:11:08;100895.08;;;14.28;75.10
49709;BME280;35601;55.902;13.606;2023-06-22T00:13:32;100893.63;;;14.71;74.85
49709;BME280;35601;55.902;13.606;2023-06-22T00:15:57;100893.41;;;14.20;74.68
49709;BME280;35601;55.902;13.606;2023-06-22T00:18:24;100895.73;;;14.39;74.62
49709;BME280;35601;55.902;13.606;2023-06-22T00:20:48;100904.07;;;14.55;74.78
49709;BME280;35601;55.902;13.606;2023-06-22T00:23:14;100906.41;;;14.26;74.75
49709;BME280;35601;55.902;13.606;2023-06-22T00:25:39;100911.94;;;13.97;74.63
49709;BME280;35601;55.902;13.606;2023-06-22T00:28:04;100914.20;;;14.16;74.54
49709;BME280;35601;55.902;13.606;2023-06-22T00:30:30;100913.90;;;14.14;74.32
49709;BME280;35601;55.902;13.606;2023-06-22T00:35:20;100916.18;;;14.28;74.36
49709;BME280;35601;55.902;13.606;2023-06-22T00:37:45;100914.67;;;14.26;74.32
49709;BME280;35601;55.902;13.606;2023-06-22T00:40:11;100912.12;;;13.98;74.26
49709;BME280;35601;55.902;13.606;2023-06-22T00:42:36;100912.75;;;14.20;74.22
49709;BME280;35601;55.902;13.606;2023-06-22T00:45:01;100910.77;;;13.91;73.89
49709;BME280;35601;55.902;13.606;2023-06-22T00:47:26;100916.09;;;13.62;73.67
49709;BME280;35601;55.902;13.606;2023-06-22T00:49:52;100918.62;;;14.02;72.94
49709;BME280;35601;55.902;13.606;2023-06-22T00:52:17;100922.09;;;13.68;72.35
49709;BME280;35601;55.902;13.606;2023-06-22T00:54:42;100924.16;;;13.60;71.96
49709;BME280;35601;55.902;13.606;2023-06-22T00:57:07;100929.53;;;13.52;71.74
49709;BME280;35601;55.902;13.606;2023-06-22T00:59:33;100929.82;;;13.68;71.75
49709;BME280;35601;55.902;13.606;2023-06-22T01:02:00;100932.71;;;13.53;72.23
49709;BME280;35601;55.902;13.606;2023-06-22T01:04:33;100931.09;;;13.44;72.64
49709;BME280;35601;55.902;13.606;2023-06-22T01:06:54;100935.49;;;13.39;72.87
49709;BME280;35601;55.902;13.606;2023-06-22T01:09:17;100940.67;;;13.33;73.16
49709;BME280;35601;55.902;13.606;2023-06-22T01:11:42;100941.87;;;13.27;73.63
49709;BME280;35601;55.902;13.606;2023-06-22T01:14:11;100940.60;;;13.23;74.32
49709;BME280;35601;55.902;13.606;2023-06-22T01:16:34;100940.15;;;13.18;75.08
49709;BME280;35601;55.902;13.606;2023-06-22T01:19:00;100940.92;;;13.20;75.71
49709;BME280;35601;55.902;13.606;2023-06-22T01:21:23;100939.16;;;13.18;76.72
49709;BME280;35601;55.902;13.606;2023-06-22T01:23:56;100938.90;;;13.23;77.22
49709;BME280;35601;55.902;13.606;2023-06-22T01:26:18;100936.50;;;13.27;78.02
49709;BME280;35601;55.902;13.606;2023-06-22T01:28:43;100938.71;;;13.25;79.07
49709;BME280;35601;55.902;13.606;2023-06-22T01:31:04;100936.61;;;13.35;78.94
49709;BME280;35601;55.902;13.606;2023-06-22T01:33:31;100937.95;;;13.41;79.43
49709;BME280;35601;55.902;13.606;2023-06-22T01:35:55;100939.79;;;13.49;80.11
49709;BME280;35601;55.902;13.606;2023-06-22T01:38:21;100941.21;;;13.80;80.87
49709;BME280;35601;55.902;13.606;2023-06-22T01:40:46;100943.12;;;13.60;81.89
49709;BME280;35601;55.902;13.606;2023-06-22T01:43:11;100952.72;;;13.47;82.37
49709;BME280;35601;55.902;13.606;2023-06-22T01:45:37;100958.49;;;13.74;83.93
49709;BME280;35601;55.902;13.606;2023-06-22T01:48:02;100961.63;;;13.85;84.32
49709;BME280;35601;55.902;13.606;2023-06-22T01:50:28;100961.29;;;13.86;84.66
49709;BME280;35601;55.902;13.606;2023-06-22T01:52:53;100963.77;;;13.68;84.69
49709;BME280;35601;55.902;13.606;2023-06-22T01:55:19;100965.04;;;13.71;84.71
49709;BME280;35601;55.902;13.606;2023-06-22T01:57:44;100963.40;;;14.04;84.49
49709;BME280;35601;55.902;13.606;2023-06-22T02:00:13;100960.37;;;14.12;84.27
49709;BME280;35601;55.902;13.606;2023-06-22T02:02:42;100959.93;;;13.70;84.02
49709;BME280;35601;55.902;13.606;2023-06-22T02:05:05;100962.64;;;14.18;84.17
49709;BME280;35601;55.902;13.606;2023-06-22T02:07:29;100962.23;;;14.18;84.06
49709;BME280;35601;55.902;13.606;2023-06-22T02:09:53;100962.38;;;14.25;83.97
49709;BME280;35601;55.902;13.606;2023-06-22T02:12:20;100963.67;;;14.27;83.98
49709;BME280;35601;55.902;13.606;2023-06-22T02:14:43;100971.16;;;14.17;85.78
49709;BME280;35601;55.902;13.606;2023-06-22T02:17:09;100973.39;;;14.03;85.31
49709;BME280;35601;55.902;13.606;2023-06-22T02:19:36;100973.50;;;14.30;84.91
49709;BME280;35601;55.902;13.606;2023-06-22T02:21:58;100971.52;;;14.11;84.63
49709;BME280;35601;55.902;13.606;2023-06-22T02:24:23;100977.01;;;13.82;85.09
49709;BME280;35601;55.902;13.606;2023-06-22T02:26:49;100978.70;;;14.14;84.96
49709;BME280;35601;55.902;13.606;2023-06-22T02:29:15;100976.33;;;14.44;84.77
49709;BME280;35601;55.902;13.606;2023-06-22T02:31:40;100972.76;;;14.40;85.26
49709;BME280;35601;55.902;13.606;2023-06-22T02:34:06;100974.28;;;14.19;84.89
49709;BME280;35601;55.902;13.606;2023-06-22T02:36:31;100978.44;;;14.20;85.23
49709;BME280;35601;55.902;13.606;2023-06-22T02:38:57;100979.82;;;14.40;85.05
49709;BME280;35601;55.902;13.606;2023-06-22T02:41:23;100981.16;;;14.23;84.93
49709;BME280;35601;55.902;13.606;2023-06-22T02:43:47;100984.78;;;14.29;84.45
49709;BME280;35601;55.902;13.606;2023-06-22T02:46:13;100987.41;;;14.29;84.45
49709;BME280;35601;55.902;13.606;2023-06-22T02:48:38;100988.78;;;14.52;84.45
49709;BME280;35601;55.902;13.606;2023-06-22T02:51:03;100988.04;;;14.35;83.99
49709;BME280;35601;55.902;13.606;2023-06-22T02:53:29;100991.63;;;14.37;83.78
49709;BME280;35601;55.902;13.606;2023-06-22T02:55:55;100993.27;;;14.58;83.67
49709;BME280;35601;55.902;13.606;2023-06-22T02:58:19;100995.19;;;14.07;84.85
49709;BME280;35601;55.902;13.606;2023-06-22T03:00:45;100994.57;;;14.00;85.61
49709;BME280;35601;55.902;13.606;2023-06-22T03:03:10;100992.74;;;14.25;85.73
49709;BME280;35601;55.902;13.606;2023-06-22T03:05:36;100991.94;;;14.55;85.43
49709;BME280;35601;55.902;13.606;2023-06-22T03:08:02;100991.22;;;14.14;85.16
49709;BME280;35601;55.902;13.606;2023-06-22T03:10:27;100993.71;;;14.13;85.16
49709;BME280;35601;55.902;13.606;2023-06-22T03:12:54;100996.28;;;14.34;85.65
49709;BME280;35601;55.902;13.606;2023-06-22T03:15:18;100999.22;;;14.56;85.82
49709;BME280;35601;55.902;13.606;2023-06-22T03:17:44;101000.26;;;14.38;85.96
49709;BME280;35601;55.902;13.606;2023-06-22T03:20:10;100996.06;;;14.40;85.56
49709;BME280;35601;55.902;13.606;2023-06-22T03:22:35;100996.30;;;14.46;85.20
49709;BME280;35601;55.902;13.606;2023-06-22T03:25:00;100996.66;;;14.35;84.74
49709;BME280;35601;55.902;13.606;2023-06-22T03:27:25;100996.30;;;14.37;84.46
49709;BME280;35601;55.902;13.606;2023-06-22T03:29:51;100997.74;;;14.61;84.19
49709;BME280;35601;55.902;13.606;2023-06-22T03:32:17;101001.04;;;14.62;84.37
49709;BME280;35601;55.902;13.606;2023-06-22T03:34:42;100999.97;;;14.51;83.96
49709;BME280;35601;55.902;13.606;2023-06-22T03:37:09;101003.47;;;14.60;84.12
49709;BME280;35601;55.902;13.606;2023-06-22T03:39:33;101009.06;;;14.91;83.89
49709;BME280;35601;55.902;13.606;2023-06-22T03:41:58;101011.77;;;14.78;83.50
49709;BME280;35601;55.902;13.606;2023-06-22T03:44:23;101012.49;;;14.80;82.88
49709;BME280;35601;55.902;13.606;2023-06-22T03:46:49;101013.75;;;14.80;82.19
49709;BME280;35601;55.902;13.606;2023-06-22T03:49:15;101014.27;;;14.89;81.56
49709;BME280;35601;55.902;13.606;2023-06-22T03:51:40;101018.08;;;14.89;81.37
49709;BME280;35601;55.902;13.606;2023-06-22T03:54:05;101020.69;;;15.04;81.71
49709;BME280;35601;55.902;13.606;2023-06-22T03:56:30;101025.19;;;15.39;81.36
49709;BME280;35601;55.902;13.606;2023-06-22T03:58:56;101027.57;;;15.41;82.78
49709;BME280;35601;55.902;13.606;2023-06-22T04:01:20;101027.76;;;15.70;81.99
49709;BME280;35601;55.902;13.606;2023-06-22T04:03:46;101026.52;;;15.52;81.22
49709;BME280;35601;55.902;13.606;2023-06-22T04:06:11;101027.36;;;15.94;77.92
49709;BME280;35601;55.902;13.606;2023-06-22T04:08:37;101027.32;;;16.03;78.33
49709;BME280;35601;55.902;13.606;2023-06-22T04:11:02;101029.76;;;16.38;77.54
49709;BME280;35601;55.902;13.606;2023-06-22T04:13:29;101032.69;;;16.69;74.51
49709;BME280;35601;55.902;13.606;2023-06-22T04:15:52;101036.63;;;16.68;72.75
49709;BME280;35601;55.902;13.606;2023-06-22T04:18:17;101041.02;;;17.02;71.57
49709;BME280;35601;55.902;13.606;2023-06-22T04:20:42;101041.56;;;16.90;71.31
49709;BME280;35601;55.902;13.606;2023-06-22T04:23:08;101040.47;;;16.89;70.69
49709;BME280;35601;55.902;13.606;2023-06-22T04:25:34;101047.63;;;16.69;71.49
49709;BME280;35601;55.902;13.606;2023-06-22T04:27:59;101049.23;;;16.84;70.77
49709;BME280;35601;55.902;13.606;2023-06-22T04:30:25;101052.54;;;15.82;71.10
49709;BME280;35601;55.902;13.606;2023-06-22T04:32:50;101054.40;;;16.45;70.09
49709;BME280;35601;55.902;13.606;2023-06-22T04:35:15;101058.67;;;16.91;70.39
49709;BME280;35601;55.902;13.606;2023-06-22T04:37:40;101057.43;;;16.61;70.31
49709;BME280;35601;55.902;13.606;2023-06-22T04:40:06;101059.29;;;16.76;70.71
49709;BME280;35601;55.902;13.606;2023-06-22T04:42:33;101056.89;;;16.48;70.35
49709;BME280;35601;55.902;13.606;2023-06-22T04:44:57;101056.91;;;16.62;69.78
49709;BME280;35601;55.902;13.606;2023-06-22T04:47:22;101056.65;;;16.54;69.84
49709;BME280;35601;55.902;13.606;2023-06-22T04:49:47;101059.76;;;16.68;69.81
49709;BME280;35601;55.902;13.606;2023-06-22T04:52:13;101056.37;;;16.69;69.76
49709;BME280;35601;55.902;13.606;2023-06-22T04:54:40;101055.61;;;16.36;69.87
49709;BME280;35601;55.902;13.606;2023-06-22T04:57:05;101056.68;;;16.55;71.11
49709;BME280;35601;55.902;13.606;2023-06-22T04:59:30;101062.03;;;16.58;69.77
49709;BME280;35601;55.902;13.606;2023-06-22T05:01:54;101064.25;;;16.65;70.55
49709;BME280;35601;55.902;13.606;2023-06-22T05:04:19;101066.92;;;16.60;70.29
49709;BME280;35601;55.902;13.606;2023-06-22T05:06:47;101068.22;;;16.46;70.70
49709;BME280;35601;55.902;13.606;2023-06-22T05:09:12;101065.73;;;16.54;71.06
49709;BME280;35601;55.902;13.606;2023-06-22T05:11:37;101067.06;;;16.63;70.98
49709;BME280;35601;55.902;13.606;2023-06-22T05:14:02;101071.08;;;16.54;71.14
49709;BME280;35601;55.902;13.606;2023-06-22T05:16:27;101067.55;;;16.80;71.75
49709;BME280;35601;55.902;13.606;2023-06-22T05:18:55;101067.82;;;16.61;69.79
49709;BME280;35601;55.902;13.606;2023-06-22T05:21:22;101066.66;;;16.75;70.34
49709;BME280;35601;55.902;13.606;2023-06-22T05:23:45;101067.80;;;16.73;70.37
49709;BME280;35601;55.902;13.606;2023-06-22T05:26:08;101066.40;;;16.78;69.26
49709;BME280;35601;55.902;13.606;2023-06-22T05:28:33;101074.16;;;16.86;70.07
49709;BME280;35601;55.902;13.606;2023-06-22T05:30:59;101072.62;;;16.61;68.92
49709;BME280;35601;55.902;13.606;2023-06-22T05:33:25;101072.75;;;16.64;69.27
49709;BME280;35601;55.902;13.606;2023-06-22T05:35:50;101073.91;;;16.99;68.93
49709;BME280;35601;55.902;13.606;2023-06-22T05:38:15;101079.17;;;17.22;69.07
49709;BME280;35601;55.902;13.606;2023-06-22T05:40:40;101081.46;;;17.26;67.74
49709;BME280;35601;55.902;13.606;2023-06-22T05:43:05;101083.97;;;16.90;68.46
49709;BME280;35601;55.902;13.606;2023-06-22T05:45:32;101080.66;;;17.10;67.46
49709;BME280;35601;55.902;13.606;2023-06-22T05:47:55;101078.17;;;16.92;67.01
49709;BME280;35601;55.902;13.606;2023-06-22T05:50:21;101074.99;;;17.00;67.13
49709;BME280;35601;55.902;13.606;2023-06-22T05:52:47;101073.40;;;17.19;66.64
49709;BME280;35601;55.902;13.606;2023-06-22T05:55:12;101076.39;;;17.20;66.50
49709;BME280;35601;55.902;13.606;2023-06-22T05:57:39;101076.44;;;17.37;66.61
49709;BME280;35601;55.902;13.606;2023-06-22T06:00:03;101076.71;;;17.28;66.21
49709;BME280;35601;55.902;13.606;2023-06-22T06:02:27;101076.71;;;17.08;65.87
49709;BME280;35601;55.902;13.606;2023-06-22T06:04:53;101076.90;;;17.04;65.26
49709;BME280;35601;55.902;13.606;2023-06-22T06:07:18;101078.60;;;17.08;66.16
49709;BME280;35601;55.902;13.606;2023-06-22T06:09:44;101080.90;;;17.07;65.55
49709;BME280;35601;55.902;13.606;2023-06-22T06:12:09;101082.10;;;16.83;66.44
49709;BME280;35601;55.902;13.606;2023-06-22T06:14:35;101083.64;;;17.04;65.39
49709;BME280;35601;55.902;13.606;2023-06-22T06:17:00;101079.42;;;17.38;65.78
49709;BME280;35601;55.902;13.606;2023-06-22T06:19:26;101081.88;;;16.93;65.45
49709;BME280;35601;55.902;13.606;2023-06-22T06:21:51;101083.64;;;17.17;65.07
49709;BME280;35601;55.902;13.606;2023-06-22T06:24:16;101086.71;;;17.41;65.61
49709;BME280;35601;55.902;13.606;2023-06-22T06:26:41;101084.84;;;17.59;65.29
49709;BME280;35601;55.902;13.606;2023-06-22T06:29:07;101077.64;;;17.93;63.75
49709;BME280;35601;55.902;13.606;2023-06-22T06:31:33;101076.29;;;17.92;63.64
49709;BME280;35601;55.902;13.606;2023-06-22T06:33:57;101073.15;;;17.51;63.75
49709;BME280;35601;55.902;13.606;2023-06-22T06:36:23;101071.31;;;17.29;64.32
49709;BME280;35601;55.902;13.606;2023-06-22T06:38:48;101072.54;;;18.09;64.58
49709;BME280;35601;55.902;13.606;2023-06-22T06:41:15;101069.14;;;18.12;63.09
49709;BME280;35601;55.902;13.606;2023-06-22T06:43:38;101071.56;;;18.05;62.06
49709;BME280;35601;55.902;13.606;2023-06-22T06:46:04;101065.61;;;18.05;61.72
49709;BME280;35601;55.902;13.606;2023-06-22T06:48:31;101065.71;;;18.32;60.96
49709;BME280;35601;55.902;13.606;2023-06-22T06:50:54;101065.55;;;18.25;59.87
49709;BME280;35601;55.902;13.606;2023-06-22T06:53:20;101068.48;;;18.52;59.69
49709;BME280;35601;55.902;13.606;2023-06-22T06:55:45;101070.40;;;18.87;59.20
49709;BME280;35601;55.902;13.606;2023-06-22T06:58:11;101070.93;;;19.21;58.22
49709;BME280;35601;55.902;13.606;2023-06-22T07:00:35;101071.43;;;19.15;57.02
49709;BME280;35601;55.902;13.606;2023-06-22T07:03:00;101074.75;;;19.39;56.76
49709;BME280;35601;55.902;13.606;2023-06-22T07:05:25;101077.39;;;19.39;55.61
49709;BME280;35601;55.902;13.606;2023-06-22T07:07:50;101077.38;;;19.91;56.76
49709;BME280;35601;55.902;13.606;2023-06-22T07:10:16;101072.16;;;19.83;54.98
49709;BME280;35601;55.902;13.606;2023-06-22T07:12:52;101077.77;;;20.30;53.84
49709;BME280;35601;55.902;13.606;2023-06-22T07:15:09;101073.95;;;20.63;51.44
49709;BME280;35601;55.902;13.606;2023-06-22T07:17:31;101074.14;;;20.47;50.92
49709;BME280;35601;55.902;13.606;2023-06-22T07:19:56;101074.63;;;20.72;50.76
49709;BME280;35601;55.902;13.606;2023-06-22T07:22:21;101074.98;;;20.89;50.18
49709;BME280;35601;55.902;13.606;2023-06-22T07:24:46;101076.47;;;21.12;50.26
49709;BME280;35601;55.902;13.606;2023-06-22T07:27:12;101068.34;;;21.17;49.20
49709;BME280;35601;55.902;13.606;2023-06-22T07:29:37;101067.20;;;21.43;49.02
49709;BME280;35601;55.902;13.606;2023-06-22T07:32:03;101067.69;;;21.75;48.82
49709;BME280;35601;55.902;13.606;2023-06-22T07:34:27;101060.99;;;21.58;48.00
49709;BME280;35601;55.902;13.606;2023-06-22T07:36:53;101054.13;;;22.00;48.43
49709;BME280;35601;55.902;13.606;2023-06-22T07:39:19;101057.09;;;21.60;47.63
49709;BME280;35601;55.902;13.606;2023-06-22T07:41:44;101057.74;;;21.78;47.05
49709;BME280;35601;55.902;13.606;2023-06-22T07:44:08;101056.75;;;21.68;46.47
49709;BME280;35601;55.902;13.606;2023-06-22T07:46:33;101055.31;;;21.74;47.00
49709;BME280;35601;55.902;13.606;2023-06-22T07:49:01;101057.99;;;21.80;46.37
49709;BME280;35601;55.902;13.606;2023-06-22T07:51:24;101052.36;;;22.09;45.71
49709;BME280;35601;55.902;13.606;2023-06-22T07:53:50;101056.89;;;22.08;44.45
49709;BME280;35601;55.902;13.606;2023-06-22T07:56:15;101054.13;;;22.06;44.68
49709;BME280;35601;55.902;13.606;2023-06-22T07:58:40;101055.35;;;22.33;46.64
49709;BME280;35601;55.902;13.606;2023-06-22T08:01:06;101054.56;;;22.84;45.16
49709;BME280;35601;55.902;13.606;2023-06-22T08:03:31;101059.15;;;22.75;45.11
49709;BME280;35601;55.902;13.606;2023-06-22T08:05:55;101062.97;;;22.63;46.93
49709;BME280;35601;55.902;13.606;2023-06-22T08:08:22;101066.22;;;22.86;44.53
49709;BME280;35601;55.902;13.606;2023-06-22T08:10:47;101070.82;;;23.24;46.17
49709;BME280;35601;55.902;13.606;2023-06-22T08:13:11;101074.68;;;23.05;43.82
49709;BME280;35601;55.902;13.606;2023-06-22T08:15:35;101074.06;;;22.82;43.93
49709;BME280;35601;55.902;13.606;2023-06-22T08:18:01;101074.80;;;22.94;41.95
49709;BME280;35601;55.902;13.606;2023-06-22T08:20:26;101073.99;;;23.14;42.71
49709;BME280;35601;55.902;13.606;2023-06-22T08:22:54;101068.50;;;23.48;42.69
49709;BME280;35601;55.902;13.606;2023-06-22T08:25:16;101065.02;;;23.24;42.06
49709;BME280;35601;55.902;13.606;2023-06-22T08:27:45;101059.84;;;23.02;43.67
49709;BME280;35601;55.902;13.606;2023-06-22T08:30:07;101056.17;;;23.14;43.15
49709;BME280;35601;55.902;13.606;2023-06-22T08:32:32;101060.38;;;22.83;43.69
49709;BME280;35601;55.902;13.606;2023-06-22T08:34:57;101055.34;;;22.62;43.56
49709;BME280;35601;55.902;13.606;2023-06-22T08:37:22;101052.43;;;22.88;44.90
49709;BME280;35601;55.902;13.606;2023-06-22T08:39:48;101053.18;;;23.23;42.73
49709;BME280;35601;55.902;13.606;2023-06-22T08:42:12;101055.67;;;23.37;42.83
49709;BME280;35601;55.902;13.606;2023-06-22T08:44:37;101058.57;;;23.52;42.40
49709;BME280;35601;55.902;13.606;2023-06-22T08:47:03;101058.74;;;23.06;43.24
49709;BME280;35601;55.902;13.606;2023-06-22T08:49:27;101059.90;;;22.96;42.83
49709;BME280;35601;55.902;13.606;2023-06-22T08:51:52;101054.25;;;23.24;42.36
49709;BME280;35601;55.902;13.606;2023-06-22T08:54:18;101056.46;;;23.51;43.31
49709;BME280;35601;55.902;13.606;2023-06-22T08:56:43;101061.20;;;23.87;42.53
49709;BME280;35601;55.902;13.606;2023-06-22T08:59:10;101060.56;;;23.79;40.91
49709;BME280;35601;55.902;13.606;2023-06-22T09:01:38;101058.05;;;23.24;41.65
49709;BME280;35601;55.902;13.606;2023-06-22T09:03:59;101052.79;;;23.07;42.05
49709;BME280;35601;55.902;13.606;2023-06-22T09:06:23;101058.34;;;23.25;41.06
49709;BME280;35601;55.902;13.606;2023-06-22T09:08:49;101064.67;;;23.46;40.93
49709;BME280;35601;55.902;13.606;2023-06-22T09:11:14;101072.34;;;23.52;40.96
49709;BME280;35601;55.902;13.606;2023-06-22T09:13:40;101077.27;;;24.14;40.87
49709;BME280;35601;55.902;13.606;2023-06-22T09:16:05;101070.28;;;24.11;39.33
49709;BME280;35601;55.902;13.606;2023-06-22T09:18:30;101065.62;;;24.55;39.42
49709;BME280;35601;55.902;13.606;2023-06-22T09:20:55;101064.84;;;25.12;36.72
49709;BME280;35601;55.902;13.606;2023-06-22T09:23:22;101064.62;;;24.82;37.00
49709;BME280;35601;55.902;13.606;2023-06-22T09:25:46;101063.34;;;25.14;36.75
49709;BME280;35601;55.902;13.606;2023-06-22T09:28:10;101057.34;;;25.22;36.85
49709;BME280;35601;55.902;13.606;2023-06-22T09:30:36;101054.43;;;25.71;35.96
49709;BME280;35601;55.902;13.606;2023-06-22T09:33:00;101061.44;;;25.44;35.81
49709;BME280;35601;55.902;13.606;2023-06-22T09:35:26;101068.19;;;25.02;35.95
49709;BME280;35601;55.902;13.606;2023-06-22T09:37:51;101069.97;;;25.19;36.48
49709;BME280;35601;55.902;13.606;2023-06-22T09:40:18;101078.77;;;25.61;37.67
49709;BME280;35601;55.902;13.606;2023-06-22T09:42:41;101079.76;;;25.04;36.43
49709;BME280;35601;55.902;13.606;2023-06-22T09:45:07;101072.05;;;25.04;36.80
49709;BME280;35601;55.902;13.606;2023-06-22T09:47:31;101072.83;;;25.22;37.48
49709;BME280;35601;55.902;13.606;2023-06-22T09:49:56;101071.05;;;24.42;36.87
49709;BME280;35601;55.902;13.606;2023-06-22T09:52:22;101067.32;;;24.69;37.68
49709;BME280;35601;55.902;13.606;2023-06-22T09:54:48;101073.08;;;24.53;37.42
49709;BME280;35601;55.902;13.606;2023-06-22T09:57:11;101075.01;;;24.70;38.50
49709;BME280;35601;55.902;13.606;2023-06-22T09:59:37;101071.12;;;24.96;36.76
49709;BME280;35601;55.902;13.606;2023-06-22T10:02:02;101068.38;;;24.91;36.96
49709;BME280;35601;55.902;13.606;2023-06-22T10:04:27;101071.32;;;24.17;37.44
49709;BME280;35601;55.902;13.606;2023-06-22T10:06:53;101065.17;;;24.28;38.12
49709;BME280;35601;55.902;13.606;2023-06-22T10:09:17;101065.81;;;24.64;37.90
49709;BME280;35601;55.902;13.606;2023-06-22T10:11:45;101056.09;;;24.79;38.69
49709;BME280;35601;55.902;13.606;2023-06-22T10:14:08;101056.77;;;25.35;37.27
49709;BME280;35601;55.902;13.606;2023-06-22T10:16:33;101059.74;;;25.44;36.67
49709;BME280;35601;55.902;13.606;2023-06-22T10:18:59;101048.44;;;25.51;37.61
49709;BME280;35601;55.902;13.606;2023-06-22T10:21:24;101040.11;;;25.71;34.69
49709;BME280;35601;55.902;13.606;2023-06-22T10:23:49;101047.45;;;25.80;35.13
49709;BME280;35601;55.902;13.606;2023-06-22T10:26:16;101033.89;;;26.07;34.22
49709;BME280;35601;55.902;13.606;2023-06-22T10:28:49;101030.25;;;26.50;34.27
49709;BME280;35601;55.902;13.606;2023-06-22T10:31:04;101024.28;;;26.81;34.33
49709;BME280;35601;55.902;13.606;2023-06-22T10:33:29;101025.67;;;27.21;33.09
49709;BME280;35601;55.902;13.606;2023-06-22T10:35:55;101028.84;;;26.67;32.76
49709;BME280;35601;55.902;13.606;2023-06-22T10:38:19;101025.10;;;27.23;32.24
49709;BME280;35601;55.902;13.606;2023-06-22T10:40:45;101034.85;;;27.45;32.09
49709;BME280;35601;55.902;13.606;2023-06-22T10:43:09;101034.29;;;26.76;31.62
49709;BME280;35601;55.902;13.606;2023-06-22T10:45:35;101041.44;;;26.31;32.42
49709;BME280;35601;55.902;13.606;2023-06-22T10:48:00;101047.04;;;26.39;33.07
49709;BME280;35601;55.902;13.606;2023-06-22T10:50:25;101043.51;;;26.00;33.02
49709;BME280;35601;55.902;13.606;2023-06-22T10:52:50;101043.91;;;26.02;33.19
49709;BME280;35601;55.902;13.606;2023-06-22T10:55:15;101042.01;;;26.49;33.87
49709;BME280;35601;55.902;13.606;2023-06-22T10:57:40;101040.05;;;27.00;32.04
49709;BME280;35601;55.902;13.606;2023-06-22T11:00:06;101032.59;;;26.64;31.16
49709;BME280;35601;55.902;13.606;2023-06-22T11:02:30;101030.93;;;26.83;32.17
49709;BME280;35601;55.902;13.606;2023-06-22T11:04:55;101038.37;;;26.26;31.85
49709;BME280;35601;55.902;13.606;2023-06-22T11:07:21;101044.81;;;26.35;32.40
49709;BME280;35601;55.902;13.606;2023-06-22T11:09:56;101043.87;;;26.28;32.10
49709;BME280;35601;55.902;13.606;2023-06-22T11:12:10;101049.23;;;25.81;33.20
49709;BME280;35601;55.902;13.606;2023-06-22T11:14:35;101044.76;;;25.30;33.32
49709;BME280;35601;55.902;13.606;2023-06-22T11:17:01;101045.09;;;25.35;33.98
49709;BME280;35601;55.902;13.606;2023-06-22T11:19:26;101043.59;;;25.42;35.23
49709;BME280;35601;55.902;13.606;2023-06-22T11:21:51;101049.02;;;25.09;34.61
49709;BME280;35601;55.902;13.606;2023-06-22T11:24:16;101050.67;;;25.13;34.76
49709;BME280;35601;55.902;13.606;2023-06-22T11:26:41;101053.53;;;24.57;34.58
49709;BME280;35601;55.902;13.606;2023-06-22T11:29:07;101048.63;;;25.35;36.31
49709;BME280;35601;55.902;13.606;2023-06-22T11:31:34;101043.70;;;25.12;34.79
49709;BME280;35601;55.902;13.606;2023-06-22T11:33:57;101041.47;;;24.96;35.35
49709;BME280;35601;55.902;13.606;2023-06-22T11:36:22;101042.31;;;25.11;35.61
49709;BME280;35601;55.902;13.606;2023-06-22T11:38:47;101039.54;;;25.43;34.96
49709;BME280;35601;55.902;13.606;2023-06-22T11:41:12;101042.46;;;25.14;35.63
49709;BME280;35601;55.902;13.606;2023-06-22T11:43:37;101034.61;;;25.23;35.62
49709;BME280;35601;55.902;13.606;2023-06-22T11:46:03;101034.35;;;24.97;35.39
49709;BME280;35601;55.902;13.606;2023-06-22T11:48:27;101028.75;;;24.63;36.26
49709;BME280;35601;55.902;13.606;2023-06-22T11:50:52;101028.47;;;25.09;35.29
49709;BME280;35601;55.902;13.606;2023-06-22T11:53:18;101027.38;;;25.10;35.26
49709;BME280;35601;55.902;13.606;2023-06-22T11:55:43;101028.22;;;25.09;34.70
49709;BME280;35601;55.902;13.606;2023-06-22T11:58:08;101029.29;;;25.61;35.17
49709;BME280;35601;55.902;13.606;2023-06-22T12:00:34;101030.77;;;25.42;34.87
49709;BME280;35601;55.902;13.606;2023-06-22T12:02:58;101030.27;;;25.53;34.47
49709;BME280;35601;55.902;13.606;2023-06-22T12:05:23;101027.05;;;25.15;34.25
49709;BME280;35601;55.902;13.606;2023-06-22T12:07:48;101027.49;;;25.06;35.05
49709;BME280;35601;55.902;13.606;2023-06-22T12:10:14;101030.88;;;25.13;34.67
49709;BME280;35601;55.902;13.606;2023-06-22T12:12:39;101032.13;;;24.82;34.98
49709;BME280;35601;55.902;13.606;2023-06-22T12:15:04;101028.39;;;24.75;35.80
49709;BME280;35601;55.902;13.606;2023-06-22T12:17:34;101027.40;;;25.18;34.34
49709;BME280;35601;55.902;13.606;2023-06-22T12:19:55;101017.67;;;25.58;33.81
49709;BME280;35601;55.902;13.606;2023-06-22T12:22:19;101017.94;;;25.19;34.64
49709;BME280;35601;55.902;13.606;2023-06-22T12:24:44;101015.93;;;25.84;34.42
49709;BME280;35601;55.902;13.606;2023-06-22T12:27:10;101018.54;;;26.00;32.87
49709;BME280;35601;55.902;13.606;2023-06-22T12:29:35;101019.09;;;26.51;32.59
49709;BME280;35601;55.902;13.606;2023-06-22T12:32:00;101019.17;;;26.35;32.11